»·PEaware :: N64SB KBUR-KLAS

N64SB :: KBUR-KLAS

FLIGHT INFORMATION

Flight Status: Arrived
Operator: Privately registered:
United States
More flights under this callsign
Pilot: Oliver M. (5590)
Aircraft: Unknown
(EPIC)
More flights by this aircraft type
Origin: KBUR Bob Hope-Burbank
United States
Destination: KLAS McCarran Intl
United States
More flights between these airports :: More routes between these airports
Route: +VNY3 DAG CRESO4
File this flight plan on PilotEdge
Remarks: I-5
Altitude:
(Current/Filed)
23,000ft
Speed:
(Current/Filed)
225kts
Departed: 02-Jan-18 09:22 AM
Arrived: 02-Jan-18 10:16 AM
Distance/Time
Traveled:
193nm/0:54
Distance/Time
To Go:
Arrived

Flight Plot

Page will automatically refresh every two minutes.

Flight plan parsing failed; only flown route is shown


Map Options




Map Legend


Flown Route
Filed Route
Departure Airport
Arrival Airport
Navaid (VOR, NDB)
Fix

Horizontal Profiles

Position Reports

Time Latitude Longitude Heading Altitude Ground
Speed
02-Jan-18 09:16 34.200500 -118.365995 182 734ft 0kts
02-Jan-18 09:17 34.200500 -118.365995 182 734ft 0kts
02-Jan-18 09:18 34.200500 -118.365995 182 734ft 0kts
02-Jan-18 09:19 34.200500 -118.365995 182 734ft 0kts
02-Jan-18 09:20 34.200500 -118.365995 182 734ft 0kts
02-Jan-18 09:21 34.200500 -118.365995 182 734ft 0kts
02-Jan-18 09:22 34.200500 -118.365995 182 734ft 0kts
02-Jan-18 09:23 34.199163 -118.365286 94 734ft 17kts
02-Jan-18 09:24 34.199717 -118.358132 347 734ft 21kts
02-Jan-18 09:25 34.206175 -118.359903 345 734ft 24kts
02-Jan-18 09:26 34.211963 -118.361449 34 734ft 0kts
02-Jan-18 09:27 34.211967 -118.361447 34 734ft 1kts
02-Jan-18 09:28 34.191790 -118.357415 202 1755ft 152kts
02-Jan-18 09:29 34.166383 -118.403016 262 4079ft 219kts
02-Jan-18 09:30 34.172914 -118.473197 291 7108ft 221kts
02-Jan-18 09:31 34.194788 -118.542035 289 9791ft 232kts
02-Jan-18 09:32 34.245027 -118.584553 338 12161ft 239kts
02-Jan-18 09:33 34.307716 -118.595172 44 14097ft 241kts
02-Jan-18 09:34 34.347991 -118.530757 61 15893ft 244kts
02-Jan-18 09:35 34.384151 -118.459861 55 17409ft 255kts
02-Jan-18 09:36 34.426869 -118.391155 59 18654ft 263kts
02-Jan-18 09:37 34.473749 -118.316197 59 19262ft 287kts
02-Jan-18 09:38 34.521815 -118.239604 59 20200ft 277kts
02-Jan-18 09:39 34.566818 -118.167603 60 21143ft 290kts
02-Jan-18 09:40 34.618303 -118.084912 60 21140ft 322kts
02-Jan-18 09:41 34.639530 -117.983330 87 21137ft 315kts
02-Jan-18 09:42 34.651861 -117.876817 88 21135ft 322kts
02-Jan-18 09:43 34.664039 -117.769144 82 21123ft 328kts
02-Jan-18 09:44 34.690244 -117.662612 79 21129ft 331kts
02-Jan-18 09:45 34.717466 -117.555871 79 21128ft 331kts
02-Jan-18 09:46 34.744684 -117.449049 79 21128ft 331kts
02-Jan-18 09:47 34.771645 -117.342833 79 21129ft 331kts
02-Jan-18 09:48 34.798721 -117.235686 79 21131ft 331kts
02-Jan-18 09:49 34.825598 -117.128801 79 21131ft 331kts
02-Jan-18 09:50 34.852245 -117.021816 68 21126ft 329kts
02-Jan-18 09:51 34.878699 -116.916145 66 21123ft 328kts
02-Jan-18 09:52 34.905476 -116.808916 66 21125ft 334kts
02-Jan-18 09:53 34.932456 -116.700007 66 21125ft 337kts
02-Jan-18 09:54 34.959034 -116.592381 65 21126ft 338kts
02-Jan-18 09:55 34.999475 -116.495478 54 21133ft 332kts
02-Jan-18 09:56 35.043500 -116.395925 53 21143ft 333kts
02-Jan-18 09:57 35.087849 -116.295719 55 19729ft 336kts
02-Jan-18 09:58 35.130220 -116.199676 56 18241ft 318kts
02-Jan-18 09:59 35.171477 -116.105951 56 16687ft 308kts
02-Jan-18 10:00 35.211385 -116.015044 57 15197ft 300kts
02-Jan-18 10:01 35.250396 -115.925930 58 13708ft 296kts
02-Jan-18 10:02 35.288986 -115.837543 59 12213ft 294kts
02-Jan-18 10:03 35.334488 -115.756157 46 10717ft 291kts
02-Jan-18 10:04 35.387713 -115.684154 44 9986ft 269kts
02-Jan-18 10:05 35.439979 -115.614408 44 9990ft 278kts
02-Jan-18 10:06 35.492136 -115.544772 44 9991ft 276kts
02-Jan-18 10:07 35.543712 -115.475684 44 9991ft 275kts
02-Jan-18 10:08 35.595353 -115.406332 44 9991ft 274kts
02-Jan-18 10:09 35.646331 -115.337721 45 9992ft 274kts
02-Jan-18 10:10 35.698728 -115.267124 46 9364ft 292kts
02-Jan-18 10:11 35.754860 -115.191239 46 8416ft 302kts
02-Jan-18 10:12 35.818959 -115.139194 21 7383ft 262kts
02-Jan-18 10:13 35.879275 -115.107530 21 7002ft 212kts
02-Jan-18 10:14 35.928959 -115.081112 21 7008ft 187kts
02-Jan-18 10:15 35.977507 -115.055476 21 7009ft 195kts
02-Jan-18 10:16 36.028025 -115.029183 21 7006ft 198kts
02-Jan-18 10:17 36.078959 -115.003173 21 7003ft 198kts
02-Jan-18 10:18 36.127050 -115.002714 292 7005ft 203kts
02-Jan-18 10:19 36.136707 -115.075451 280 5875ft 226kts
02-Jan-18 10:20 36.128829 -115.138886 224 3252ft 178kts
02-Jan-18 10:21 36.093254 -115.160085 205 2115ft 47kts
02-Jan-18 10:22 36.089375 -115.163434 295 2115ft 0kts
02-Jan-18 10:23 36.089375 -115.163434 295 2115ft 0kts
02-Jan-18 10:24 36.089375 -115.163434 295 2115ft 0kts
02-Jan-18 10:25 36.089540 -115.165993 4 2115ft 0kts

Navigation Log

Ident Type
Flight plan parsing failed, navigation log unavailable